sensor_id;sensor_type;location;lat;lon;timestamp;temperature;humidity
12329;DHT22;6230;52.390;10.256;2022-12-07T00:01:30;6.50;80.10
12329;DHT22;6230;52.390;10.256;2022-12-07T00:03:58;6.50;80.20
12329;DHT22;6230;52.390;10.256;2022-12-07T00:06:40;6.50;80.20
12329;DHT22;6230;52.390;10.256;2022-12-07T00:09:09;6.60;80.20
12329;DHT22;6230;52.390;10.256;2022-12-07T00:11:35;6.60;80.20
12329;DHT22;6230;52.390;10.256;2022-12-07T00:14:03;6.60;80.20
12329;DHT22;6230;52.390;10.256;2022-12-07T00:16:31;6.60;80.20
12329;DHT22;6230;52.390;10.256;2022-12-07T00:18:58;6.60;80.20
12329;DHT22;6230;52.390;10.256;2022-12-07T00:21:29;6.70;80.30
12329;DHT22;6230;52.390;10.256;2022-12-07T00:23:56;6.70;80.30
12329;DHT22;6230;52.390;10.256;2022-12-07T00:26:24;6.70;80.30
12329;DHT22;6230;52.390;10.256;2022-12-07T00:28:52;6.70;80.20
12329;DHT22;6230;52.390;10.256;2022-12-07T00:31:20;6.80;80.30
12329;DHT22;6230;52.390;10.256;2022-12-07T00:33:46;6.80;80.30
12329;DHT22;6230;52.390;10.256;2022-12-07T00:36:16;6.80;80.30
12329;DHT22;6230;52.390;10.256;2022-12-07T00:38:42;6.80;80.30
12329;DHT22;6230;52.390;10.256;2022-12-07T00:41:11;6.80;80.30
12329;DHT22;6230;52.390;10.256;2022-12-07T00:43:37;6.80;80.40
12329;DHT22;6230;52.390;10.256;2022-12-07T00:46:03;6.80;80.30
12329;DHT22;6230;52.390;10.256;2022-12-07T00:48:29;6.80;80.30
12329;DHT22;6230;52.390;10.256;2022-12-07T00:50:55;6.80;80.40
12329;DHT22;6230;52.390;10.256;2022-12-07T00:53:22;6.80;80.40
12329;DHT22;6230;52.390;10.256;2022-12-07T00:55:48;6.80;80.40
12329;DHT22;6230;52.390;10.256;2022-12-07T00:58:14;6.90;80.50
12329;DHT22;6230;52.390;10.256;2022-12-07T01:00:41;6.90;80.50
12329;DHT22;6230;52.390;10.256;2022-12-07T01:03:09;6.90;80.40
12329;DHT22;6230;52.390;10.256;2022-12-07T01:05:35;6.90;80.50
12329;DHT22;6230;52.390;10.256;2022-12-07T01:08:00;6.90;80.50
12329;DHT22;6230;52.390;10.256;2022-12-07T01:10:26;6.90;80.60
12329;DHT22;6230;52.390;10.256;2022-12-07T01:12:52;6.90;80.50
12329;DHT22;6230;52.390;10.256;2022-12-07T01:15:17;6.90;80.50
12329;DHT22;6230;52.390;10.256;2022-12-07T01:17:43;6.90;81.20
12329;DHT22;6230;52.390;10.256;2022-12-07T01:20:10;6.90;80.50
12329;DHT22;6230;52.390;10.256;2022-12-07T01:22:40;6.90;80.60
12329;DHT22;6230;52.390;10.256;2022-12-07T01:25:07;6.90;80.70
12329;DHT22;6230;52.390;10.256;2022-12-07T01:27:34;6.90;80.70
12329;DHT22;6230;52.390;10.256;2022-12-07T01:30:00;6.90;80.80
12329;DHT22;6230;52.390;10.256;2022-12-07T01:32:26;6.90;80.70
12329;DHT22;6230;52.390;10.256;2022-12-07T01:34:52;6.90;80.70
12329;DHT22;6230;52.390;10.256;2022-12-07T01:37:18;6.90;80.70
12329;DHT22;6230;52.390;10.256;2022-12-07T01:39:43;6.90;80.80
12329;DHT22;6230;52.390;10.256;2022-12-07T01:42:10;6.90;80.80
12329;DHT22;6230;52.390;10.256;2022-12-07T01:47:39;6.90;80.90
12329;DHT22;6230;52.390;10.256;2022-12-07T01:50:05;7.00;80.80
12329;DHT22;6230;52.390;10.256;2022-12-07T01:52:33;7.00;80.80
12329;DHT22;6230;52.390;10.256;2022-12-07T01:55:01;7.00;80.90
12329;DHT22;6230;52.390;10.256;2022-12-07T01:57:31;7.00;80.90
12329;DHT22;6230;52.390;10.256;2022-12-07T01:59:57;7.00;80.80
12329;DHT22;6230;52.390;10.256;2022-12-07T02:02:27;7.00;80.80
12329;DHT22;6230;52.390;10.256;2022-12-07T02:04:56;7.00;80.80
12329;DHT22;6230;52.390;10.256;2022-12-07T02:07:23;7.00;80.90
12329;DHT22;6230;52.390;10.256;2022-12-07T02:09:49;7.00;80.80
12329;DHT22;6230;52.390;10.256;2022-12-07T02:12:14;7.00;80.80
12329;DHT22;6230;52.390;10.256;2022-12-07T02:14:40;7.00;80.90
12329;DHT22;6230;52.390;10.256;2022-12-07T02:17:25;7.10;80.90
12329;DHT22;6230;52.390;10.256;2022-12-07T02:20:21;7.10;81.10
12329;DHT22;6230;52.390;10.256;2022-12-07T02:28:12;7.10;81.00
12329;DHT22;6230;52.390;10.256;2022-12-07T02:30:46;7.10;81.00
12329;DHT22;6230;52.390;10.256;2022-12-07T02:33:19;7.10;80.90
12329;DHT22;6230;52.390;10.256;2022-12-07T02:36:04;7.10;81.00
12329;DHT22;6230;52.390;10.256;2022-12-07T02:38:39;7.10;81.00
12329;DHT22;6230;52.390;10.256;2022-12-07T02:41:13;7.10;81.00
12329;DHT22;6230;52.390;10.256;2022-12-07T02:43:51;7.20;81.10
12329;DHT22;6230;52.390;10.256;2022-12-07T02:46:26;7.20;81.10
12329;DHT22;6230;52.390;10.256;2022-12-07T02:48:53;7.20;81.10
12329;DHT22;6230;52.390;10.256;2022-12-07T02:51:21;7.20;81.10
12329;DHT22;6230;52.390;10.256;2022-12-07T02:53:47;7.20;81.10
12329;DHT22;6230;52.390;10.256;2022-12-07T03:12:45;7.30;81.40
12329;DHT22;6230;52.390;10.256;2022-12-07T03:15:42;7.30;81.40
12329;DHT22;6230;52.390;10.256;2022-12-07T03:18:11;7.30;81.40
12329;DHT22;6230;52.390;10.256;2022-12-07T03:20:39;7.30;81.30
12329;DHT22;6230;52.390;10.256;2022-12-07T03:23:08;7.30;81.30
12329;DHT22;6230;52.390;10.256;2022-12-07T03:25:40;7.30;81.30
12329;DHT22;6230;52.390;10.256;2022-12-07T03:28:07;7.30;81.30
12329;DHT22;6230;52.390;10.256;2022-12-07T03:30:52;7.30;81.20
12329;DHT22;6230;52.390;10.256;2022-12-07T03:33:31;7.30;81.20
12329;DHT22;6230;52.390;10.256;2022-12-07T03:36:09;7.30;81.10
12329;DHT22;6230;52.390;10.256;2022-12-07T03:38:37;7.30;81.10
12329;DHT22;6230;52.390;10.256;2022-12-07T03:41:14;7.30;81.10
12329;DHT22;6230;52.390;10.256;2022-12-07T03:43:42;7.30;81.10
12329;DHT22;6230;52.390;10.256;2022-12-07T03:54:17;7.30;80.90
12329;DHT22;6230;52.390;10.256;2022-12-07T03:56:46;7.30;81.00
12329;DHT22;6230;52.390;10.256;2022-12-07T03:59:13;7.20;81.00
12329;DHT22;6230;52.390;10.256;2022-12-07T04:01:42;7.30;81.10
12329;DHT22;6230;52.390;10.256;2022-12-07T04:04:08;7.30;81.00
12329;DHT22;6230;52.390;10.256;2022-12-07T04:06:33;7.30;81.00
12329;DHT22;6230;52.390;10.256;2022-12-07T04:08:59;7.30;81.00
12329;DHT22;6230;52.390;10.256;2022-12-07T04:11:24;7.30;81.00
12329;DHT22;6230;52.390;10.256;2022-12-07T04:13:50;7.30;81.00
12329;DHT22;6230;52.390;10.256;2022-12-07T04:16:34;7.30;81.00
12329;DHT22;6230;52.390;10.256;2022-12-07T04:18:59;7.30;81.00
12329;DHT22;6230;52.390;10.256;2022-12-07T04:21:25;7.30;81.00
12329;DHT22;6230;52.390;10.256;2022-12-07T04:23:51;7.30;81.00
12329;DHT22;6230;52.390;10.256;2022-12-07T04:26:16;7.30;80.90
12329;DHT22;6230;52.390;10.256;2022-12-07T04:28:42;7.30;80.90
12329;DHT22;6230;52.390;10.256;2022-12-07T04:31:07;7.30;80.90
12329;DHT22;6230;52.390;10.256;2022-12-07T04:33:33;7.30;80.90
12329;DHT22;6230;52.390;10.256;2022-12-07T04:35:58;7.30;80.80
12329;DHT22;6230;52.390;10.256;2022-12-07T04:38:24;7.30;80.80
12329;DHT22;6230;52.390;10.256;2022-12-07T04:40:49;7.30;80.80
12329;DHT22;6230;52.390;10.256;2022-12-07T04:43:15;7.30;80.90
12329;DHT22;6230;52.390;10.256;2022-12-07T04:45:46;7.20;80.80
12329;DHT22;6230;52.390;10.256;2022-12-07T04:48:12;7.20;80.80
12329;DHT22;6230;52.390;10.256;2022-12-07T04:50:37;7.20;80.70
12329;DHT22;6230;52.390;10.256;2022-12-07T04:53:03;7.20;80.70
12329;DHT22;6230;52.390;10.256;2022-12-07T04:55:29;7.20;80.70
12329;DHT22;6230;52.390;10.256;2022-12-07T04:57:54;7.20;80.60
12329;DHT22;6230;52.390;10.256;2022-12-07T05:00:20;7.20;80.60
12329;DHT22;6230;52.390;10.256;2022-12-07T05:02:45;7.20;80.60
12329;DHT22;6230;52.390;10.256;2022-12-07T05:05:11;7.10;80.50
12329;DHT22;6230;52.390;10.256;2022-12-07T05:07:36;7.10;80.50
12329;DHT22;6230;52.390;10.256;2022-12-07T05:10:02;7.10;80.50
12329;DHT22;6230;52.390;10.256;2022-12-07T05:12:28;7.10;80.50
12329;DHT22;6230;52.390;10.256;2022-12-07T05:14:53;7.10;80.50
12329;DHT22;6230;52.390;10.256;2022-12-07T05:17:19;7.10;80.50
12329;DHT22;6230;52.390;10.256;2022-12-07T05:19:44;7.10;80.50
12329;DHT22;6230;52.390;10.256;2022-12-07T05:22:10;7.10;80.50
12329;DHT22;6230;52.390;10.256;2022-12-07T05:24:36;7.10;80.50
12329;DHT22;6230;52.390;10.256;2022-12-07T05:27:01;7.10;80.40
12329;DHT22;6230;52.390;10.256;2022-12-07T05:29:27;7.10;80.40
12329;DHT22;6230;52.390;10.256;2022-12-07T05:31:52;7.10;80.40
12329;DHT22;6230;52.390;10.256;2022-12-07T05:34:18;7.10;80.40
12329;DHT22;6230;52.390;10.256;2022-12-07T05:36:43;7.10;80.30
12329;DHT22;6230;52.390;10.256;2022-12-07T05:39:10;7.10;80.30
12329;DHT22;6230;52.390;10.256;2022-12-07T05:41:35;7.10;80.30
12329;DHT22;6230;52.390;10.256;2022-12-07T05:44:20;7.10;80.30
12329;DHT22;6230;52.390;10.256;2022-12-07T05:46:45;7.10;80.30
12329;DHT22;6230;52.390;10.256;2022-12-07T05:49:11;7.10;80.30
12329;DHT22;6230;52.390;10.256;2022-12-07T05:51:36;7.10;80.30
12329;DHT22;6230;52.390;10.256;2022-12-07T05:54:02;7.10;80.30
12329;DHT22;6230;52.390;10.256;2022-12-07T05:56:27;7.10;80.30
12329;DHT22;6230;52.390;10.256;2022-12-07T05:58:54;7.10;80.30
12329;DHT22;6230;52.390;10.256;2022-12-07T06:01:38;7.10;80.30
12329;DHT22;6230;52.390;10.256;2022-12-07T06:04:03;7.10;81.00
12329;DHT22;6230;52.390;10.256;2022-12-07T06:06:29;7.10;80.30
12329;DHT22;6230;52.390;10.256;2022-12-07T06:08:55;7.00;80.30
12329;DHT22;6230;52.390;10.256;2022-12-07T06:11:20;7.00;80.30
12329;DHT22;6230;52.390;10.256;2022-12-07T06:14:04;7.00;80.30
12329;DHT22;6230;52.390;10.256;2022-12-07T06:16:30;7.00;80.20
12329;DHT22;6230;52.390;10.256;2022-12-07T06:18:55;7.00;80.20
12329;DHT22;6230;52.390;10.256;2022-12-07T06:21:21;7.00;80.30
12329;DHT22;6230;52.390;10.256;2022-12-07T06:23:47;7.00;80.30
12329;DHT22;6230;52.390;10.256;2022-12-07T06:26:13;7.00;80.20
12329;DHT22;6230;52.390;10.256;2022-12-07T06:28:39;7.00;81.00
12329;DHT22;6230;52.390;10.256;2022-12-07T06:31:06;7.00;80.10
12329;DHT22;6230;52.390;10.256;2022-12-07T06:33:31;7.10;80.30
12329;DHT22;6230;52.390;10.256;2022-12-07T06:35:57;7.10;80.20
12329;DHT22;6230;52.390;10.256;2022-12-07T06:38:22;7.10;80.20
12329;DHT22;6230;52.390;10.256;2022-12-07T06:40:48;7.10;80.20
12329;DHT22;6230;52.390;10.256;2022-12-07T06:43:13;7.10;80.20
12329;DHT22;6230;52.390;10.256;2022-12-07T06:45:40;7.10;80.30
12329;DHT22;6230;52.390;10.256;2022-12-07T06:48:06;7.10;80.20
12329;DHT22;6230;52.390;10.256;2022-12-07T06:50:32;7.10;80.10
12329;DHT22;6230;52.390;10.256;2022-12-07T06:52:57;7.10;80.10
12329;DHT22;6230;52.390;10.256;2022-12-07T06:55:23;7.10;80.10
12329;DHT22;6230;52.390;10.256;2022-12-07T06:57:48;7.10;80.10
12329;DHT22;6230;52.390;10.256;2022-12-07T07:00:14;7.10;80.10
12329;DHT22;6230;52.390;10.256;2022-12-07T07:02:40;7.10;80.30
12329;DHT22;6230;52.390;10.256;2022-12-07T07:05:05;7.10;80.10
12329;DHT22;6230;52.390;10.256;2022-12-07T07:07:31;7.10;80.20
12329;DHT22;6230;52.390;10.256;2022-12-07T07:09:57;7.10;80.20
12329;DHT22;6230;52.390;10.256;2022-12-07T07:12:22;7.10;80.20
12329;DHT22;6230;52.390;10.256;2022-12-07T07:14:48;7.10;80.20
12329;DHT22;6230;52.390;10.256;2022-12-07T07:17:13;7.00;80.00
12329;DHT22;6230;52.390;10.256;2022-12-07T07:19:39;7.00;80.10
12329;DHT22;6230;52.390;10.256;2022-12-07T07:22:05;7.00;80.10
12329;DHT22;6230;52.390;10.256;2022-12-07T07:24:30;7.10;80.10
12329;DHT22;6230;52.390;10.256;2022-12-07T07:26:56;7.00;80.10
12329;DHT22;6230;52.390;10.256;2022-12-07T07:29:21;7.00;80.10
12329;DHT22;6230;52.390;10.256;2022-12-07T07:31:47;7.00;80.10
12329;DHT22;6230;52.390;10.256;2022-12-07T07:34:13;7.00;80.10
12329;DHT22;6230;52.390;10.256;2022-12-07T07:36:38;7.00;80.10
12329;DHT22;6230;52.390;10.256;2022-12-07T07:39:04;7.00;80.10
12329;DHT22;6230;52.390;10.256;2022-12-07T07:41:30;7.00;80.10
12329;DHT22;6230;52.390;10.256;2022-12-07T07:43:56;7.00;80.10
12329;DHT22;6230;52.390;10.256;2022-12-07T07:46:21;7.00;80.10
12329;DHT22;6230;52.390;10.256;2022-12-07T07:48:47;7.10;80.10
12329;DHT22;6230;52.390;10.256;2022-12-07T07:51:12;7.10;80.00
12329;DHT22;6230;52.390;10.256;2022-12-07T07:53:38;7.10;80.00
12329;DHT22;6230;52.390;10.256;2022-12-07T07:56:04;7.10;80.00
12329;DHT22;6230;52.390;10.256;2022-12-07T07:58:29;7.10;80.00
12329;DHT22;6230;52.390;10.256;2022-12-07T08:00:55;7.10;80.00
12329;DHT22;6230;52.390;10.256;2022-12-07T08:03:20;7.10;80.00
12329;DHT22;6230;52.390;10.256;2022-12-07T08:05:46;7.10;80.00
12329;DHT22;6230;52.390;10.256;2022-12-07T08:08:11;7.10;80.00
12329;DHT22;6230;52.390;10.256;2022-12-07T08:10:37;7.10;80.00
12329;DHT22;6230;52.390;10.256;2022-12-07T08:13:03;7.10;80.00
12329;DHT22;6230;52.390;10.256;2022-12-07T08:15:40;7.10;80.00
12329;DHT22;6230;52.390;10.256;2022-12-07T08:18:08;7.10;80.00
12329;DHT22;6230;52.390;10.256;2022-12-07T08:20:35;7.10;80.00
12329;DHT22;6230;52.390;10.256;2022-12-07T08:23:01;7.10;80.00
12329;DHT22;6230;52.390;10.256;2022-12-07T08:25:27;7.10;80.00
12329;DHT22;6230;52.390;10.256;2022-12-07T08:27:53;7.10;80.00
12329;DHT22;6230;52.390;10.256;2022-12-07T08:30:19;7.10;80.00
12329;DHT22;6230;52.390;10.256;2022-12-07T08:32:46;7.10;80.00
12329;DHT22;6230;52.390;10.256;2022-12-07T08:35:12;7.10;80.00
12329;DHT22;6230;52.390;10.256;2022-12-07T08:37:39;7.10;80.00
12329;DHT22;6230;52.390;10.256;2022-12-07T08:40:07;7.10;80.10
12329;DHT22;6230;52.390;10.256;2022-12-07T08:42:33;7.10;80.00
12329;DHT22;6230;52.390;10.256;2022-12-07T08:45:07;7.10;80.10
12329;DHT22;6230;52.390;10.256;2022-12-07T08:47:36;7.10;80.00
12329;DHT22;6230;52.390;10.256;2022-12-07T08:50:04;7.10;80.10
12329;DHT22;6230;52.390;10.256;2022-12-07T08:52:32;7.10;80.10
12329;DHT22;6230;52.390;10.256;2022-12-07T08:54:59;7.10;80.00
12329;DHT22;6230;52.390;10.256;2022-12-07T08:57:26;7.10;80.00
12329;DHT22;6230;52.390;10.256;2022-12-07T08:59:53;7.00;80.00
12329;DHT22;6230;52.390;10.256;2022-12-07T09:02:19;7.10;80.10
12329;DHT22;6230;52.390;10.256;2022-12-07T09:04:44;7.10;80.10
12329;DHT22;6230;52.390;10.256;2022-12-07T09:07:10;7.10;80.10
12329;DHT22;6230;52.390;10.256;2022-12-07T09:09:36;7.10;80.10
12329;DHT22;6230;52.390;10.256;2022-12-07T09:12:01;7.10;80.10
12329;DHT22;6230;52.390;10.256;2022-12-07T09:14:27;7.10;80.10
12329;DHT22;6230;52.390;10.256;2022-12-07T09:16:53;7.10;80.20
12329;DHT22;6230;52.390;10.256;2022-12-07T09:19:18;7.10;80.20
12329;DHT22;6230;52.390;10.256;2022-12-07T09:21:47;7.10;80.20
12329;DHT22;6230;52.390;10.256;2022-12-07T09:24:13;7.10;80.30
12329;DHT22;6230;52.390;10.256;2022-12-07T09:26:38;7.20;80.30
12329;DHT22;6230;52.390;10.256;2022-12-07T09:29:05;7.20;80.30
12329;DHT22;6230;52.390;10.256;2022-12-07T09:31:31;7.20;80.20
12329;DHT22;6230;52.390;10.256;2022-12-07T09:33:58;7.30;80.20
12329;DHT22;6230;52.390;10.256;2022-12-07T09:36:24;7.30;80.10
12329;DHT22;6230;52.390;10.256;2022-12-07T09:38:50;7.30;80.10
12329;DHT22;6230;52.390;10.256;2022-12-07T09:41:16;7.30;80.00
12329;DHT22;6230;52.390;10.256;2022-12-07T09:43:42;7.30;80.00
12329;DHT22;6230;52.390;10.256;2022-12-07T09:46:11;7.30;80.10
12329;DHT22;6230;52.390;10.256;2022-12-07T09:48:39;7.30;80.00
12329;DHT22;6230;52.390;10.256;2022-12-07T09:51:22;7.40;80.10
12329;DHT22;6230;52.390;10.256;2022-12-07T09:53:49;7.40;80.10
12329;DHT22;6230;52.390;10.256;2022-12-07T09:56:16;7.40;80.00
12329;DHT22;6230;52.390;10.256;2022-12-07T09:58:42;7.40;80.00
12329;DHT22;6230;52.390;10.256;2022-12-07T10:03:39;7.40;80.00
12329;DHT22;6230;52.390;10.256;2022-12-07T10:06:06;7.40;80.00
12329;DHT22;6230;52.390;10.256;2022-12-07T10:08:33;7.40;80.00
12329;DHT22;6230;52.390;10.256;2022-12-07T10:11:01;7.40;80.00
12329;DHT22;6230;52.390;10.256;2022-12-07T10:13:38;7.40;80.00
12329;DHT22;6230;52.390;10.256;2022-12-07T10:16:04;7.40;80.00
12329;DHT22;6230;52.390;10.256;2022-12-07T10:18:34;7.40;79.90
12329;DHT22;6230;52.390;10.256;2022-12-07T10:21:17;7.50;80.00
12329;DHT22;6230;52.390;10.256;2022-12-07T10:26:38;7.50;80.10
12329;DHT22;6230;52.390;10.256;2022-12-07T10:29:38;7.50;80.10
12329;DHT22;6230;52.390;10.256;2022-12-07T10:32:24;7.50;80.00
12329;DHT22;6230;52.390;10.256;2022-12-07T10:34:52;7.60;80.10
12329;DHT22;6230;52.390;10.256;2022-12-07T10:37:40;7.60;79.90
12329;DHT22;6230;52.390;10.256;2022-12-07T10:40:33;7.60;79.70
12329;DHT22;6230;52.390;10.256;2022-12-07T10:43:18;7.60;79.70
12329;DHT22;6230;52.390;10.256;2022-12-07T10:48:48;7.60;79.60
12329;DHT22;6230;52.390;10.256;2022-12-07T10:51:43;7.60;79.60
12329;DHT22;6230;52.390;10.256;2022-12-07T10:54:17;7.60;79.50
12329;DHT22;6230;52.390;10.256;2022-12-07T10:57:15;7.60;79.50
12329;DHT22;6230;52.390;10.256;2022-12-07T11:00:04;7.60;79.60
12329;DHT22;6230;52.390;10.256;2022-12-07T11:08:09;7.90;80.00
12329;DHT22;6230;52.390;10.256;2022-12-07T11:10:49;7.90;79.80
12329;DHT22;6230;52.390;10.256;2022-12-07T11:16:38;8.00;79.40
12329;DHT22;6230;52.390;10.256;2022-12-07T11:22:04;8.00;79.10
12329;DHT22;6230;52.390;10.256;2022-12-07T11:32:47;8.00;79.00
12329;DHT22;6230;52.390;10.256;2022-12-07T11:37:59;8.00;78.90
12329;DHT22;6230;52.390;10.256;2022-12-07T11:40:30;8.00;78.90
12329;DHT22;6230;52.390;10.256;2022-12-07T11:43:04;7.90;78.90
12329;DHT22;6230;52.390;10.256;2022-12-07T11:45:33;7.90;78.90
12329;DHT22;6230;52.390;10.256;2022-12-07T11:48:20;7.90;78.90
12329;DHT22;6230;52.390;10.256;2022-12-07T11:53:25;8.00;78.80
12329;DHT22;6230;52.390;10.256;2022-12-07T12:01:13;8.00;78.80
12329;DHT22;6230;52.390;10.256;2022-12-07T12:06:33;8.00;78.60
12329;DHT22;6230;52.390;10.256;2022-12-07T12:09:11;8.00;78.40
12329;DHT22;6230;52.390;10.256;2022-12-07T12:11:50;8.00;78.40
12329;DHT22;6230;52.390;10.256;2022-12-07T12:15:38;8.00;78.30
12329;DHT22;6230;52.390;10.256;2022-12-07T12:23:01;8.00;78.90
12329;DHT22;6230;52.390;10.256;2022-12-07T12:25:43;8.10;79.10
12329;DHT22;6230;52.390;10.256;2022-12-07T12:32:04;8.40;79.10
12329;DHT22;6230;52.390;10.256;2022-12-07T12:33:57;8.60;78.70
12329;DHT22;6230;52.390;10.256;2022-12-07T12:36:47;8.60;78.10
12329;DHT22;6230;52.390;10.256;2022-12-07T12:39:17;8.60;77.90
12329;DHT22;6230;52.390;10.256;2022-12-07T12:51:53;8.40;77.50
12329;DHT22;6230;52.390;10.256;2022-12-07T12:54:21;8.40;77.40
12329;DHT22;6230;52.390;10.256;2022-12-07T12:57:09;8.30;77.30
12329;DHT22;6230;52.390;10.256;2022-12-07T13:02:36;8.20;77.20
12329;DHT22;6230;52.390;10.256;2022-12-07T13:10:32;8.20;77.30
12329;DHT22;6230;52.390;10.256;2022-12-07T13:12:59;8.20;77.30
12329;DHT22;6230;52.390;10.256;2022-12-07T13:18:25;8.20;77.30
12329;DHT22;6230;52.390;10.256;2022-12-07T13:26:21;8.20;77.10
12329;DHT22;6230;52.390;10.256;2022-12-07T13:29:03;8.20;77.10
12329;DHT22;6230;52.390;10.256;2022-12-07T13:31:42;8.20;77.00
12329;DHT22;6230;52.390;10.256;2022-12-07T13:34:31;8.20;77.00
12329;DHT22;6230;52.390;10.256;2022-12-07T13:37:02;8.10;76.90
12329;DHT22;6230;52.390;10.256;2022-12-07T13:39:33;8.10;77.00
12329;DHT22;6230;52.390;10.256;2022-12-07T13:42:08;8.10;77.00
12329;DHT22;6230;52.390;10.256;2022-12-07T13:44:40;8.10;77.00
12329;DHT22;6230;52.390;10.256;2022-12-07T13:47:12;8.10;77.00
12329;DHT22;6230;52.390;10.256;2022-12-07T13:49:53;8.10;77.00
12329;DHT22;6230;52.390;10.256;2022-12-07T13:52:27;8.10;77.00
12329;DHT22;6230;52.390;10.256;2022-12-07T13:55:00;8.10;77.00
12329;DHT22;6230;52.390;10.256;2022-12-07T13:57:28;8.10;77.00
12329;DHT22;6230;52.390;10.256;2022-12-07T13:59:54;8.10;76.90
12329;DHT22;6230;52.390;10.256;2022-12-07T14:04:49;8.10;76.90
12329;DHT22;6230;52.390;10.256;2022-12-07T14:07:27;8.10;76.90
12329;DHT22;6230;52.390;10.256;2022-12-07T14:09:55;8.10;76.90
12329;DHT22;6230;52.390;10.256;2022-12-07T14:12:21;8.10;76.80
12329;DHT22;6230;52.390;10.256;2022-12-07T14:14:48;8.10;76.80
12329;DHT22;6230;52.390;10.256;2022-12-07T14:19:48;8.00;76.60
12329;DHT22;6230;52.390;10.256;2022-12-07T14:22:38;8.00;76.60
12329;DHT22;6230;52.390;10.256;2022-12-07T14:27:38;7.90;76.50
12329;DHT22;6230;52.390;10.256;2022-12-07T14:30:05;7.90;76.50
12329;DHT22;6230;52.390;10.256;2022-12-07T14:32:31;7.90;76.50
12329;DHT22;6230;52.390;10.256;2022-12-07T14:37:29;7.90;76.50
12329;DHT22;6230;52.390;10.256;2022-12-07T14:39:55;7.90;76.50
12329;DHT22;6230;52.390;10.256;2022-12-07T14:42:23;7.90;76.40
12329;DHT22;6230;52.390;10.256;2022-12-07T14:44:49;7.90;76.40
12329;DHT22;6230;52.390;10.256;2022-12-07T14:47:15;7.90;76.40
12329;DHT22;6230;52.390;10.256;2022-12-07T14:49:41;7.90;76.40
12329;DHT22;6230;52.390;10.256;2022-12-07T14:52:13;7.90;76.30
12329;DHT22;6230;52.390;10.256;2022-12-07T14:54:41;7.90;76.40
12329;DHT22;6230;52.390;10.256;2022-12-07T14:57:09;7.90;76.30
12329;DHT22;6230;52.390;10.256;2022-12-07T14:59:35;8.00;76.20
12329;DHT22;6230;52.390;10.256;2022-12-07T15:02:01;8.00;76.20
12329;DHT22;6230;52.390;10.256;2022-12-07T15:04:26;8.00;76.10
12329;DHT22;6230;52.390;10.256;2022-12-07T15:06:57;8.00;76.10
12329;DHT22;6230;52.390;10.256;2022-12-07T15:09:22;8.00;76.10
12329;DHT22;6230;52.390;10.256;2022-12-07T15:11:48;8.00;76.10
12329;DHT22;6230;52.390;10.256;2022-12-07T15:14:13;8.00;76.10
12329;DHT22;6230;52.390;10.256;2022-12-07T15:16:40;8.00;76.10
12329;DHT22;6230;52.390;10.256;2022-12-07T15:19:14;8.00;76.10
12329;DHT22;6230;52.390;10.256;2022-12-07T15:21:41;8.00;76.10
12329;DHT22;6230;52.390;10.256;2022-12-07T15:24:09;8.00;76.10
12329;DHT22;6230;52.390;10.256;2022-12-07T15:26:35;8.00;76.20
12329;DHT22;6230;52.390;10.256;2022-12-07T15:29:01;8.00;76.20
12329;DHT22;6230;52.390;10.256;2022-12-07T15:31:26;7.90;76.10
12329;DHT22;6230;52.390;10.256;2022-12-07T15:33:52;7.90;76.10
12329;DHT22;6230;52.390;10.256;2022-12-07T15:36:23;7.90;76.10
12329;DHT22;6230;52.390;10.256;2022-12-07T15:38:49;7.80;76.00
12329;DHT22;6230;52.390;10.256;2022-12-07T15:41:15;7.70;75.90
12329;DHT22;6230;52.390;10.256;2022-12-07T15:43:41;7.60;75.90
12329;DHT22;6230;52.390;10.256;2022-12-07T15:46:33;7.50;76.00
12329;DHT22;6230;52.390;10.256;2022-12-07T15:48:59;7.40;76.10
12329;DHT22;6230;52.390;10.256;2022-12-07T15:51:25;7.30;76.10
12329;DHT22;6230;52.390;10.256;2022-12-07T15:53:51;7.20;76.00
12329;DHT22;6230;52.390;10.256;2022-12-07T15:56:17;7.10;76.10
12329;DHT22;6230;52.390;10.256;2022-12-07T15:58:42;7.10;76.20
12329;DHT22;6230;52.390;10.256;2022-12-07T16:01:12;7.00;76.10
12329;DHT22;6230;52.390;10.256;2022-12-07T16:03:38;7.00;76.10
12329;DHT22;6230;52.390;10.256;2022-12-07T16:06:04;7.00;76.10
12329;DHT22;6230;52.390;10.256;2022-12-07T16:08:30;7.00;76.10
12329;DHT22;6230;52.390;10.256;2022-12-07T16:10:55;7.00;76.00
12329;DHT22;6230;52.390;10.256;2022-12-07T16:13:21;7.00;76.00
12329;DHT22;6230;52.390;10.256;2022-12-07T16:15:47;6.90;75.80
12329;DHT22;6230;52.390;10.256;2022-12-07T16:18:12;6.90;75.70
12329;DHT22;6230;52.390;10.256;2022-12-07T16:20:38;6.90;75.60
12329;DHT22;6230;52.390;10.256;2022-12-07T16:23:04;6.90;75.70
12329;DHT22;6230;52.390;10.256;2022-12-07T16:25:29;6.90;75.60
12329;DHT22;6230;52.390;10.256;2022-12-07T16:27:55;6.80;75.50
12329;DHT22;6230;52.390;10.256;2022-12-07T16:30:20;6.80;75.50
12329;DHT22;6230;52.390;10.256;2022-12-07T16:32:46;6.80;75.40
12329;DHT22;6230;52.390;10.256;2022-12-07T16:35:12;6.80;75.40
12329;DHT22;6230;52.390;10.256;2022-12-07T16:37:38;6.80;75.40
12329;DHT22;6230;52.390;10.256;2022-12-07T16:40:04;6.80;75.40
12329;DHT22;6230;52.390;10.256;2022-12-07T16:42:32;6.80;75.40
12329;DHT22;6230;52.390;10.256;2022-12-07T16:44:58;6.80;75.40
12329;DHT22;6230;52.390;10.256;2022-12-07T16:47:23;6.80;75.40
12329;DHT22;6230;52.390;10.256;2022-12-07T16:49:49;6.80;75.50
12329;DHT22;6230;52.390;10.256;2022-12-07T16:52:14;6.80;75.50
12329;DHT22;6230;52.390;10.256;2022-12-07T16:54:40;6.80;75.50
12329;DHT22;6230;52.390;10.256;2022-12-07T16:57:06;6.80;75.50
12329;DHT22;6230;52.390;10.256;2022-12-07T16:59:31;6.80;75.50
12329;DHT22;6230;52.390;10.256;2022-12-07T17:01:57;6.80;75.60
12329;DHT22;6230;52.390;10.256;2022-12-07T17:04:22;6.80;75.50
12329;DHT22;6230;52.390;10.256;2022-12-07T17:06:48;6.80;75.60
12329;DHT22;6230;52.390;10.256;2022-12-07T17:09:13;6.90;75.60
12329;DHT22;6230;52.390;10.256;2022-12-07T17:11:39;6.90;75.70
12329;DHT22;6230;52.390;10.256;2022-12-07T17:14:08;6.90;75.60
12329;DHT22;6230;52.390;10.256;2022-12-07T17:16:52;6.90;75.70
12329;DHT22;6230;52.390;10.256;2022-12-07T17:19:18;6.90;75.70
12329;DHT22;6230;52.390;10.256;2022-12-07T17:21:43;6.90;75.70
12329;DHT22;6230;52.390;10.256;2022-12-07T17:24:11;6.90;75.70
12329;DHT22;6230;52.390;10.256;2022-12-07T17:26:37;6.90;75.80
12329;DHT22;6230;52.390;10.256;2022-12-07T17:29:05;6.90;75.80
12329;DHT22;6230;52.390;10.256;2022-12-07T17:31:32;6.80;75.90
12329;DHT22;6230;52.390;10.256;2022-12-07T17:33:58;6.80;76.00
12329;DHT22;6230;52.390;10.256;2022-12-07T17:36:28;6.80;76.10
12329;DHT22;6230;52.390;10.256;2022-12-07T17:38:54;6.80;76.20
12329;DHT22;6230;52.390;10.256;2022-12-07T17:41:28;6.80;76.30
12329;DHT22;6230;52.390;10.256;2022-12-07T17:44:17;6.80;76.30
12329;DHT22;6230;52.390;10.256;2022-12-07T17:46:44;6.80;76.40
12329;DHT22;6230;52.390;10.256;2022-12-07T17:49:10;6.80;76.40
12329;DHT22;6230;52.390;10.256;2022-12-07T17:51:36;6.80;76.30
12329;DHT22;6230;52.390;10.256;2022-12-07T17:54:20;6.80;76.30
12329;DHT22;6230;52.390;10.256;2022-12-07T17:56:46;6.90;76.30